メインページ
METAR-TAF:

METAR-TAF

空港 :

リスボン, ポルトガル

ウンベルト・デルガード空港

緯度: 38-46N, 経度: 009-08W, 海抜: 114m

現時点の気象観測

当レポートは40分前の23:00(UTC)に作成
北/北西の風 6kt
気温 16°C
湿度 72%
気圧 1015 hPa
視程10km以上
1,500メートル以下は雲なし、積乱雲なし

METAR: LPPT 232300Z 33006KT CAVOK 16/11 Q1015

時間: 00:40 (23:40 UTC)

予報

当レポートは6時間40分前の17:00(UTC)に作成
予報は23日の 18時(UTC)から 24日の 24時(UTC)まで有効
北西の風 10kt
視程10km以上
1,500メートル以下は雲なし、積乱雲なし
23日の 22時(UTC)から 23日の 24時(UTC)まで徐々に
の風 5kt
24日の 06時(UTC)から 24日の 09時(UTC)まで徐々に
変向風 3kt
24日の 15時(UTC)から 24日の 17時(UTC)まで徐々に
北西の風 12kt
24日の 22時(UTC)から 24日の 24時(UTC)まで徐々に
の風 5kt

TAF: LPPT 231700Z 2318/2424 31010KT CAVOK BECMG 2322/2324 35005KT BECMG 2406/2409 VRB03KT BECMG 2415/2417 32012KT BECMG 2422/2424 35005KT

4,000以上の空港の気象観測と天気予報(METAR報とTAF報)

利用可能な観測所は地図上に黄色い丸と赤い丸で示す。

丸の上にカーソルを重ねると観測所名を参照できる。

次にクリックすると気象観測と天気予報を参照できる。

マップの切り替え:黒色「×」印の緑ボタンをクリックして拡大、「-」印の緑ボタンをクリックして縮小、緑色の三角印をクリックして隣りの地図に切り替え


METAR-TAF: